sensor_id;sensor_type;location;lat;lon;timestamp;pressure;altitude;pressure_sealevel;temperature;humidity
56632;BME280;42503;39.928;-75.152;2022-11-20T00:00:18;101873.56;;;22.50;33.38
56632;BME280;42503;39.928;-75.152;2022-11-20T00:02:19;101875.78;;;22.53;33.15
56632;BME280;42503;39.928;-75.152;2022-11-20T00:04:21;101875.78;;;22.53;33.56
56632;BME280;42503;39.928;-75.152;2022-11-20T00:06:22;101861.28;;;22.51;33.56
56632;BME280;42503;39.928;-75.152;2022-11-20T00:08:24;101857.91;;;22.54;33.59
56632;BME280;42503;39.928;-75.152;2022-11-20T00:10:25;101864.63;;;22.53;33.43
56632;BME280;42503;39.928;-75.152;2022-11-20T00:12:27;101865.47;;;22.53;33.73
56632;BME280;42503;39.928;-75.152;2022-11-20T00:14:28;101869.09;;;22.54;33.58
56632;BME280;42503;39.928;-75.152;2022-11-20T00:16:31;101878.56;;;22.53;33.50
56632;BME280;42503;39.928;-75.152;2022-11-20T00:18:33;101874.09;;;22.52;33.94
56632;BME280;42503;39.928;-75.152;2022-11-20T00:20:35;101878.56;;;22.53;33.72
56632;BME280;42503;39.928;-75.152;2022-11-20T00:22:36;101873.25;;;22.51;33.72
56632;BME280;42503;39.928;-75.152;2022-11-20T00:24:37;101869.06;;;22.49;33.45
56632;BME280;42503;39.928;-75.152;2022-11-20T00:26:38;101861.53;;;22.49;33.89
56632;BME280;42503;39.928;-75.152;2022-11-20T00:28:41;101859.28;;;22.46;33.90
56632;BME280;42503;39.928;-75.152;2022-11-20T00:30:42;101869.34;;;22.47;33.61
56632;BME280;42503;39.928;-75.152;2022-11-20T00:32:43;101866.81;;;22.46;33.63
56632;BME280;42503;39.928;-75.152;2022-11-20T00:34:47;101857.91;;;22.49;33.71
56632;BME280;42503;39.928;-75.152;2022-11-20T00:36:49;101852.88;;;22.46;34.00
56632;BME280;42503;39.928;-75.152;2022-11-20T00:38:57;101852.25;;;22.39;34.11
56632;BME280;42503;39.928;-75.152;2022-11-20T00:41:01;101861.22;;;22.41;33.91
56632;BME280;42503;39.928;-75.152;2022-11-20T00:43:02;101856.19;;;22.43;33.85
56632;BME280;42503;39.928;-75.152;2022-11-20T00:45:04;101843.34;;;22.37;34.00
56632;BME280;42503;39.928;-75.152;2022-11-20T00:47:05;101848.34;;;22.40;34.51
56632;BME280;42503;39.928;-75.152;2022-11-20T00:49:07;101835.53;;;22.39;34.30
56632;BME280;42503;39.928;-75.152;2022-11-20T00:51:08;101840.28;;;22.38;34.32
56632;BME280;42503;39.928;-75.152;2022-11-20T00:53:12;101829.91;;;22.28;34.45
56632;BME280;42503;39.928;-75.152;2022-11-20T00:55:16;101834.97;;;22.37;34.85
56632;BME280;42503;39.928;-75.152;2022-11-20T00:57:17;101831.63;;;22.40;34.63
56632;BME280;42503;39.928;-75.152;2022-11-20T00:59:19;101781.47;;;22.07;34.56
56632;BME280;42503;39.928;-75.152;2022-11-20T01:01:22;101826.63;;;22.42;34.82
56632;BME280;42503;39.928;-75.152;2022-11-20T01:03:27;101800.91;;;22.35;34.68
56632;BME280;42503;39.928;-75.152;2022-11-20T01:05:28;101819.94;;;22.43;34.35
56632;BME280;42503;39.928;-75.152;2022-11-20T01:07:29;101828.88;;;22.45;34.62
56632;BME280;42503;39.928;-75.152;2022-11-20T01:09:33;101813.84;;;22.46;34.54
56632;BME280;42503;39.928;-75.152;2022-11-20T01:11:38;101804.88;;;22.44;34.52
56632;BME280;42503;39.928;-75.152;2022-11-20T01:13:40;101813.28;;;22.49;34.54
56632;BME280;42503;39.928;-75.152;2022-11-20T01:15:42;101800.47;;;22.58;34.46
56632;BME280;42503;39.928;-75.152;2022-11-20T01:17:43;101750.69;;;22.24;34.20
56632;BME280;42503;39.928;-75.152;2022-11-20T01:19:44;101800.47;;;22.58;34.08
56632;BME280;42503;39.928;-75.152;2022-11-20T01:21:48;101805.22;;;22.57;34.10
56632;BME280;42503;39.928;-75.152;2022-11-20T01:23:51;101789.31;;;22.58;34.06
56632;BME280;42503;39.928;-75.152;2022-11-20T01:25:52;101796.63;;;22.59;34.07
56632;BME280;42503;39.928;-75.152;2022-11-20T01:27:56;101791.88;;;22.60;34.00
56632;BME280;42503;39.928;-75.152;2022-11-20T01:29:57;101791.03;;;22.59;34.22
56632;BME280;42503;39.928;-75.152;2022-11-20T01:31:59;101761.38;;;22.43;34.27
56632;BME280;42503;39.928;-75.152;2022-11-20T01:34:05;101775.13;;;22.60;33.90
56632;BME280;42503;39.928;-75.152;2022-11-20T01:36:10;101756.09;;;22.46;34.26
56632;BME280;42503;39.928;-75.152;2022-11-20T01:38:15;101772.91;;;22.62;33.91
56632;BME280;42503;39.928;-75.152;2022-11-20T01:40:16;101767.31;;;22.62;34.07
56632;BME280;42503;39.928;-75.152;2022-11-20T01:42:18;101766.47;;;22.61;34.38
56632;BME280;42503;39.928;-75.152;2022-11-20T01:44:48;101766.47;;;22.61;34.22
56632;BME280;42503;39.928;-75.152;2022-11-20T01:47:01;101770.09;;;22.62;33.98
56632;BME280;42503;39.928;-75.152;2022-11-20T01:49:17;101768.97;;;22.63;34.14
56632;BME280;42503;39.928;-75.152;2022-11-20T01:51:32;101760.91;;;22.61;33.99
56632;BME280;42503;39.928;-75.152;2022-11-20T01:53:36;101753.09;;;22.63;33.85
56632;BME280;42503;39.928;-75.152;2022-11-20T01:55:50;101747.47;;;22.53;33.97
56632;BME280;42503;39.928;-75.152;2022-11-20T01:57:53;101753.09;;;22.63;34.16
56632;BME280;42503;39.928;-75.152;2022-11-20T02:00:07;101741.34;;;22.56;33.93
56632;BME280;42503;39.928;-75.152;2022-11-20T02:02:09;101747.50;;;22.63;34.02
56632;BME280;42503;39.928;-75.152;2022-11-20T02:04:11;101753.09;;;22.63;33.76
56632;BME280;42503;39.928;-75.152;2022-11-20T02:06:25;101749.19;;;22.59;34.00
56632;BME280;42503;39.928;-75.152;2022-11-20T02:08:28;101744.16;;;22.61;33.92
56632;BME280;42503;39.928;-75.152;2022-11-20T02:10:29;101735.47;;;22.52;34.01
56632;BME280;42503;39.928;-75.152;2022-11-20T02:12:32;101738.03;;;22.59;34.07
56632;BME280;42503;39.928;-75.152;2022-11-20T02:14:52;101726.59;;;22.61;33.95
56632;BME280;42503;39.928;-75.152;2022-11-20T02:16:54;101704.78;;;22.47;33.96
56632;BME280;42503;39.928;-75.152;2022-11-20T02:18:58;101722.38;;;22.58;33.86
56632;BME280;42503;39.928;-75.152;2022-11-20T02:21:09;101626.22;;;22.03;34.09
56632;BME280;42503;39.928;-75.152;2022-11-20T02:23:39;101681.03;;;22.40;33.85
56632;BME280;42503;39.928;-75.152;2022-11-20T02:25:41;101707.34;;;22.59;34.29
56632;BME280;42503;39.928;-75.152;2022-11-20T02:27:46;101706.75;;;22.57;34.28
56632;BME280;42503;39.928;-75.152;2022-11-20T02:29:53;101704.81;;;22.57;33.94
56632;BME280;42503;39.928;-75.152;2022-11-20T02:31:57;101691.44;;;22.54;33.87
56632;BME280;42503;39.928;-75.152;2022-11-20T02:34:02;101695.88;;;22.55;33.95
56632;BME280;42503;39.928;-75.152;2022-11-20T02:36:07;101668.50;;;22.42;34.20
56632;BME280;42503;39.928;-75.152;2022-11-20T02:38:13;101696.72;;;22.56;34.05
56632;BME280;42503;39.928;-75.152;2022-11-20T02:40:14;101705.09;;;22.56;33.92
56632;BME280;42503;39.928;-75.152;2022-11-20T02:42:18;101695.88;;;22.55;33.80
56632;BME280;42503;39.928;-75.152;2022-11-20T02:44:20;101692.81;;;22.57;33.72
56632;BME280;42503;39.928;-75.152;2022-11-20T02:46:21;101703.97;;;22.57;34.04
56632;BME280;42503;39.928;-75.152;2022-11-20T02:48:22;101695.06;;;22.55;34.06
56632;BME280;42503;39.928;-75.152;2022-11-20T02:50:27;101707.88;;;22.56;33.92
56632;BME280;42503;39.928;-75.152;2022-11-20T02:52:28;101701.19;;;22.57;33.98
56632;BME280;42503;39.928;-75.152;2022-11-20T02:54:29;101695.06;;;22.55;34.16
56632;BME280;42503;39.928;-75.152;2022-11-20T02:56:31;101692.81;;;22.57;34.25
56632;BME280;42503;39.928;-75.152;2022-11-20T02:58:32;101689.19;;;22.56;34.09
56632;BME280;42503;39.928;-75.152;2022-11-20T03:00:33;101680.00;;;22.56;34.02
56632;BME280;42503;39.928;-75.152;2022-11-20T03:02:36;101582.19;;;22.00;33.92
56632;BME280;42503;39.928;-75.152;2022-11-20T03:04:40;101668.00;;;22.55;34.24
56632;BME280;42503;39.928;-75.152;2022-11-20T03:06:44;101661.59;;;22.55;34.07
56632;BME280;42503;39.928;-75.152;2022-11-20T03:08:45;101657.38;;;22.52;34.34
56632;BME280;42503;39.928;-75.152;2022-11-20T03:11:07;101657.69;;;22.56;34.15
56632;BME280;42503;39.928;-75.152;2022-11-20T03:13:08;101662.13;;;22.57;34.08
56632;BME280;42503;39.928;-75.152;2022-11-20T03:15:10;101664.91;;;22.57;34.02
56632;BME280;42503;39.928;-75.152;2022-11-20T03:17:11;101650.97;;;22.57;34.31
56632;BME280;42503;39.928;-75.152;2022-11-20T03:19:13;101645.69;;;22.55;34.23
56632;BME280;42503;39.928;-75.152;2022-11-20T03:21:15;101635.34;;;22.56;33.96
56632;BME280;42503;39.928;-75.152;2022-11-20T03:23:17;101628.13;;;22.55;34.15
56632;BME280;42503;39.928;-75.152;2022-11-20T03:25:18;101629.19;;;22.54;34.24
56632;BME280;42503;39.928;-75.152;2022-11-20T03:27:22;101622.53;;;22.55;34.18
56632;BME280;42503;39.928;-75.152;2022-11-20T03:29:23;101612.75;;;22.52;33.95
56632;BME280;42503;39.928;-75.152;2022-11-20T03:31:35;101611.09;;;22.51;34.30
56632;BME280;42503;39.928;-75.152;2022-11-20T03:33:37;101604.09;;;22.54;33.81
56632;BME280;42503;39.928;-75.152;2022-11-20T03:35:38;101592.94;;;22.54;34.23
56632;BME280;42503;39.928;-75.152;2022-11-20T03:37:42;101501.91;;;21.92;33.86
56632;BME280;42503;39.928;-75.152;2022-11-20T03:39:43;101603.00;;;22.50;33.79
56632;BME280;42503;39.928;-75.152;2022-11-20T03:41:45;101591.81;;;22.45;34.19
56632;BME280;42503;39.928;-75.152;2022-11-20T03:43:54;101598.50;;;22.44;34.29
56632;BME280;42503;39.928;-75.152;2022-11-20T03:45:56;101592.94;;;22.44;34.17
56632;BME280;42503;39.928;-75.152;2022-11-20T03:47:57;101588.19;;;22.39;33.98
56632;BME280;42503;39.928;-75.152;2022-11-20T03:49:59;101585.09;;;22.36;34.32
56632;BME280;42503;39.928;-75.152;2022-11-20T03:52:00;101574.81;;;22.36;34.01
56632;BME280;42503;39.928;-75.152;2022-11-20T03:54:08;101577.00;;;22.34;34.03
56632;BME280;42503;39.928;-75.152;2022-11-20T03:56:11;101577.28;;;22.27;34.09
56632;BME280;42503;39.928;-75.152;2022-11-20T03:58:13;101579.78;;;22.29;34.51
56632;BME280;42503;39.928;-75.152;2022-11-20T04:00:14;101578.41;;;22.31;34.49
56632;BME280;42503;39.928;-75.152;2022-11-20T04:02:16;101581.75;;;22.33;34.06
56632;BME280;42503;39.928;-75.152;2022-11-20T04:04:17;101570.06;;;22.37;34.13
56632;BME280;42503;39.928;-75.152;2022-11-20T04:06:24;101567.53;;;22.35;34.27
56632;BME280;42503;39.928;-75.152;2022-11-20T04:08:25;101566.16;;;22.38;34.10
56632;BME280;42503;39.928;-75.152;2022-11-20T04:10:27;101565.31;;;22.37;34.04
56632;BME280;42503;39.928;-75.152;2022-11-20T04:12:32;101534.63;;;22.27;34.05
56632;BME280;42503;39.928;-75.152;2022-11-20T04:14:34;101548.84;;;22.36;34.20
56632;BME280;42503;39.928;-75.152;2022-11-20T04:16:36;101555.00;;;22.38;34.07
56632;BME280;42503;39.928;-75.152;2022-11-20T04:18:37;101515.94;;;22.22;34.30
56632;BME280;42503;39.928;-75.152;2022-11-20T04:20:38;101541.34;;;22.41;34.16
56632;BME280;42503;39.928;-75.152;2022-11-20T04:22:40;101557.78;;;22.43;34.01
56632;BME280;42503;39.928;-75.152;2022-11-20T04:24:41;101542.19;;;22.42;33.80
56632;BME280;42503;39.928;-75.152;2022-11-20T04:26:42;101542.72;;;22.44;34.00
56632;BME280;42503;39.928;-75.152;2022-11-20T04:28:44;101537.72;;;22.46;33.81
56632;BME280;42503;39.928;-75.152;2022-11-20T04:30:48;101524.63;;;22.46;34.11
56632;BME280;42503;39.928;-75.152;2022-11-20T04:32:52;101532.69;;;22.48;34.09
56632;BME280;42503;39.928;-75.152;2022-11-20T04:34:53;101533.53;;;22.48;33.65
56632;BME280;42503;39.928;-75.152;2022-11-20T04:36:54;101541.66;;;22.50;33.66
56632;BME280;42503;39.928;-75.152;2022-11-20T04:38:58;101530.50;;;22.50;33.74
56632;BME280;42503;39.928;-75.152;2022-11-20T04:41:04;101536.06;;;22.50;33.95
56632;BME280;42503;39.928;-75.152;2022-11-20T04:43:06;101537.72;;;22.51;33.68
56632;BME280;42503;39.928;-75.152;2022-11-20T04:45:07;101529.38;;;22.51;34.07
56632;BME280;42503;39.928;-75.152;2022-11-20T04:47:12;101536.06;;;22.50;34.10
56632;BME280;42503;39.928;-75.152;2022-11-20T04:49:13;101520.16;;;22.50;33.79
56632;BME280;42503;39.928;-75.152;2022-11-20T04:51:15;101518.22;;;22.46;33.71
56632;BME280;42503;39.928;-75.152;2022-11-20T04:53:20;101518.75;;;22.48;33.77
56632;BME280;42503;39.928;-75.152;2022-11-20T04:55:21;101502.31;;;22.36;33.58
56632;BME280;42503;39.928;-75.152;2022-11-20T04:57:22;101510.38;;;22.38;33.85
56632;BME280;42503;39.928;-75.152;2022-11-20T04:59:24;101535.50;;;22.48;33.89
56632;BME280;42503;39.928;-75.152;2022-11-20T05:01:25;101550.56;;;22.52;33.72
56632;BME280;42503;39.928;-75.152;2022-11-20T05:03:26;101544.44;;;22.50;33.73
56632;BME280;42503;39.928;-75.152;2022-11-20T05:05:28;101511.50;;;22.31;33.95
56632;BME280;42503;39.928;-75.152;2022-11-20T05:07:29;101550.00;;;22.50;33.88
56632;BME280;42503;39.928;-75.152;2022-11-20T05:09:30;101532.97;;;22.41;33.61
56632;BME280;42503;39.928;-75.152;2022-11-20T05:11:32;101518.75;;;22.32;33.97
56632;BME280;42503;39.928;-75.152;2022-11-20T05:13:33;101544.44;;;22.50;33.73
56632;BME280;42503;39.928;-75.152;2022-11-20T05:15:35;101536.06;;;22.50;33.94
56632;BME280;42503;39.928;-75.152;2022-11-20T05:17:36;101525.16;;;22.43;34.08
56632;BME280;42503;39.928;-75.152;2022-11-20T05:19:40;101539.41;;;22.52;33.80
56632;BME280;42503;39.928;-75.152;2022-11-20T05:21:41;101527.13;;;22.48;33.92
56632;BME280;42503;39.928;-75.152;2022-11-20T05:23:43;101542.47;;;22.50;33.93
56632;BME280;42503;39.928;-75.152;2022-11-20T05:25:45;101532.16;;;22.51;34.15
56632;BME280;42503;39.928;-75.152;2022-11-20T05:27:47;101537.72;;;22.51;33.95
56632;BME280;42503;39.928;-75.152;2022-11-20T05:29:48;101535.78;;;22.51;33.78
56632;BME280;42503;39.928;-75.152;2022-11-20T05:31:49;101530.50;;;22.50;34.11
56632;BME280;42503;39.928;-75.152;2022-11-20T05:33:51;101493.66;;;22.27;33.89
56632;BME280;42503;39.928;-75.152;2022-11-20T05:35:52;101540.53;;;22.51;34.12
56632;BME280;42503;39.928;-75.152;2022-11-20T05:37:53;101537.72;;;22.51;34.30
56632;BME280;42503;39.928;-75.152;2022-11-20T05:39:54;101536.06;;;22.50;34.02
56632;BME280;42503;39.928;-75.152;2022-11-20T05:41:56;101536.63;;;22.47;34.29
56632;BME280;42503;39.928;-75.152;2022-11-20T05:44:16;101542.72;;;22.49;34.20
56632;BME280;42503;39.928;-75.152;2022-11-20T05:46:19;101533.53;;;22.48;33.96
56632;BME280;42503;39.928;-75.152;2022-11-20T05:48:21;101539.69;;;22.50;34.27
56632;BME280;42503;39.928;-75.152;2022-11-20T05:50:22;101535.19;;;22.49;34.18
56632;BME280;42503;39.928;-75.152;2022-11-20T05:52:23;101541.66;;;22.50;34.35
56632;BME280;42503;39.928;-75.152;2022-11-20T05:54:25;101543.31;;;22.51;34.25
56632;BME280;42503;39.928;-75.152;2022-11-20T05:56:29;101548.88;;;22.51;34.10
56632;BME280;42503;39.928;-75.152;2022-11-20T05:58:33;101524.88;;;22.40;34.01
56632;BME280;42503;39.928;-75.152;2022-11-20T06:00:35;101534.66;;;22.42;34.29
56632;BME280;42503;39.928;-75.152;2022-11-20T06:02:39;101548.88;;;22.51;34.13
56632;BME280;42503;39.928;-75.152;2022-11-20T06:04:40;101546.34;;;22.49;34.11
56632;BME280;42503;39.928;-75.152;2022-11-20T06:06:41;101539.41;;;22.42;34.29
56632;BME280;42503;39.928;-75.152;2022-11-20T06:08:44;101556.69;;;22.49;34.06
56632;BME280;42503;39.928;-75.152;2022-11-20T06:10:45;101564.78;;;22.50;34.23
56632;BME280;42503;39.928;-75.152;2022-11-20T06:12:46;101562.25;;;22.49;34.13
56632;BME280;42503;39.928;-75.152;2022-11-20T06:14:48;101530.44;;;22.29;34.33
56632;BME280;42503;39.928;-75.152;2022-11-20T06:16:49;101555.00;;;22.48;34.26
56632;BME280;42503;39.928;-75.152;2022-11-20T06:18:50;101550.81;;;22.40;34.03
56632;BME280;42503;39.928;-75.152;2022-11-20T06:21:03;101566.16;;;22.48;34.37
56632;BME280;42503;39.928;-75.152;2022-11-20T06:23:05;101567.84;;;22.49;34.38
56632;BME280;42503;39.928;-75.152;2022-11-20T06:25:15;101576.19;;;22.49;34.32
56632;BME280;42503;39.928;-75.152;2022-11-20T06:27:19;101571.75;;;22.48;34.34
56632;BME280;42503;39.928;-75.152;2022-11-20T06:29:24;101573.69;;;22.47;34.16
56632;BME280;42503;39.928;-75.152;2022-11-20T06:31:30;101568.41;;;22.46;34.04
56632;BME280;42503;39.928;-75.152;2022-11-20T06:33:35;101583.44;;;22.45;33.98
56632;BME280;42503;39.928;-75.152;2022-11-20T06:35:39;101574.00;;;22.51;34.09
56632;BME280;42503;39.928;-75.152;2022-11-20T06:37:40;101581.53;;;22.50;33.91
56632;BME280;42503;39.928;-75.152;2022-11-20T06:39:42;101581.22;;;22.47;34.20
56632;BME280;42503;39.928;-75.152;2022-11-20T06:41:45;101584.56;;;22.44;34.38
56632;BME280;42503;39.928;-75.152;2022-11-20T06:43:47;101590.97;;;22.39;34.33
56632;BME280;42503;39.928;-75.152;2022-11-20T06:45:58;101573.94;;;22.25;34.47
56632;BME280;42503;39.928;-75.152;2022-11-20T06:47:59;101576.16;;;22.28;34.46
56632;BME280;42503;39.928;-75.152;2022-11-20T06:50:01;101588.47;;;22.38;34.19
56632;BME280;42503;39.928;-75.152;2022-11-20T06:52:02;101581.75;;;22.33;34.29
56632;BME280;42503;39.928;-75.152;2022-11-20T06:54:04;101592.38;;;22.37;34.15
56632;BME280;42503;39.928;-75.152;2022-11-20T06:56:06;101587.63;;;22.37;34.48
56632;BME280;42503;39.928;-75.152;2022-11-20T06:58:07;101586.22;;;22.40;34.54
56632;BME280;42503;39.928;-75.152;2022-11-20T07:00:09;101567.22;;;22.26;34.47
56632;BME280;42503;39.928;-75.152;2022-11-20T07:02:16;101572.25;;;22.29;34.33
56632;BME280;42503;39.928;-75.152;2022-11-20T07:04:23;101593.50;;;22.41;34.50
56632;BME280;42503;39.928;-75.152;2022-11-20T07:06:24;101579.25;;;22.37;34.50
56632;BME280;42503;39.928;-75.152;2022-11-20T07:08:26;101591.25;;;22.43;34.24
56632;BME280;42503;39.928;-75.152;2022-11-20T07:10:27;101561.38;;;22.23;34.24
56632;BME280;42503;39.928;-75.152;2022-11-20T07:12:29;101596.56;;;22.44;34.36
56632;BME280;42503;39.928;-75.152;2022-11-20T07:14:30;101596.00;;;22.42;34.30
56632;BME280;42503;39.928;-75.152;2022-11-20T07:16:31;101606.34;;;22.47;34.28
56632;BME280;42503;39.928;-75.152;2022-11-20T07:18:33;101589.00;;;22.40;34.03
56632;BME280;42503;39.928;-75.152;2022-11-20T07:20:37;101582.88;;;22.38;34.05
56632;BME280;42503;39.928;-75.152;2022-11-20T07:22:38;101594.06;;;22.48;34.07
56632;BME280;42503;39.928;-75.152;2022-11-20T07:24:39;101594.88;;;22.48;34.32
56632;BME280;42503;39.928;-75.152;2022-11-20T07:26:41;101572.03;;;22.41;34.42
56632;BME280;42503;39.928;-75.152;2022-11-20T07:28:44;101585.16;;;22.46;33.96
56632;BME280;42503;39.928;-75.152;2022-11-20T07:30:53;101589.03;;;22.45;34.25
56632;BME280;42503;39.928;-75.152;2022-11-20T07:32:55;101591.84;;;22.50;34.31
56632;BME280;42503;39.928;-75.152;2022-11-20T07:35:00;101599.09;;;22.51;34.22
56632;BME280;42503;39.928;-75.152;2022-11-20T07:37:01;101593.50;;;22.51;34.05
56632;BME280;42503;39.928;-75.152;2022-11-20T07:39:05;101584.56;;;22.44;34.39
56632;BME280;42503;39.928;-75.152;2022-11-20T07:41:07;101597.41;;;22.50;34.28
56632;BME280;42503;39.928;-75.152;2022-11-20T07:43:08;101580.94;;;22.43;34.22
56632;BME280;42503;39.928;-75.152;2022-11-20T07:45:09;101593.50;;;22.51;33.98
56632;BME280;42503;39.928;-75.152;2022-11-20T07:47:11;101587.09;;;22.50;34.10
56632;BME280;42503;39.928;-75.152;2022-11-20T07:49:12;101580.09;;;22.43;34.14
56632;BME280;42503;39.928;-75.152;2022-11-20T07:51:13;101598.50;;;22.49;34.21
56632;BME280;42503;39.928;-75.152;2022-11-20T07:53:17;101584.84;;;22.42;34.47
56632;BME280;42503;39.928;-75.152;2022-11-20T07:55:21;101583.19;;;22.41;34.45
56632;BME280;42503;39.928;-75.152;2022-11-20T07:57:22;101591.81;;;22.45;34.15
56632;BME280;42503;39.928;-75.152;2022-11-20T07:59:24;101573.94;;;22.36;34.01
56632;BME280;42503;39.928;-75.152;2022-11-20T08:01:25;101589.31;;;22.48;34.05
56632;BME280;42503;39.928;-75.152;2022-11-20T08:03:26;101586.28;;;22.50;34.42
56632;BME280;42503;39.928;-75.152;2022-11-20T08:05:28;101588.47;;;22.48;34.36
56632;BME280;42503;39.928;-75.152;2022-11-20T08:07:29;101590.16;;;22.49;34.34
56632;BME280;42503;39.928;-75.152;2022-11-20T08:09:30;101584.03;;;22.47;34.49
56632;BME280;42503;39.928;-75.152;2022-11-20T08:11:34;101575.66;;;22.47;34.20
56632;BME280;42503;39.928;-75.152;2022-11-20T08:13:56;101571.72;;;22.38;34.34
56632;BME280;42503;39.928;-75.152;2022-11-20T08:16:15;101574.00;;;22.46;34.49
56632;BME280;42503;39.928;-75.152;2022-11-20T08:18:17;101574.81;;;22.46;34.20
56632;BME280;42503;39.928;-75.152;2022-11-20T08:20:18;101579.56;;;22.46;34.20
56632;BME280;42503;39.928;-75.152;2022-11-20T08:22:19;101585.16;;;22.46;34.11
56632;BME280;42503;39.928;-75.152;2022-11-20T08:24:21;101577.31;;;22.38;34.47
56632;BME280;42503;39.928;-75.152;2022-11-20T08:26:23;101581.22;;;22.47;34.44
56632;BME280;42503;39.928;-75.152;2022-11-20T08:28:24;101585.16;;;22.46;34.14
56632;BME280;42503;39.928;-75.152;2022-11-20T08:30:26;101586.81;;;22.47;34.00
56632;BME280;42503;39.928;-75.152;2022-11-20T08:32:27;101582.34;;;22.46;34.06
56632;BME280;42503;39.928;-75.152;2022-11-20T08:34:29;101578.72;;;22.45;34.40
56632;BME280;42503;39.928;-75.152;2022-11-20T08:36:33;101592.69;;;22.45;34.07
56632;BME280;42503;39.928;-75.152;2022-11-20T08:38:35;101575.66;;;22.42;34.24
56632;BME280;42503;39.928;-75.152;2022-11-20T08:40:36;101585.16;;;22.46;34.11
56632;BME280;42503;39.928;-75.152;2022-11-20T08:42:46;101551.38;;;22.27;34.29
56632;BME280;42503;39.928;-75.152;2022-11-20T08:44:48;101581.22;;;22.47;34.09
56632;BME280;42503;39.928;-75.152;2022-11-20T08:46:49;101587.09;;;22.45;34.41
56632;BME280;42503;39.928;-75.152;2022-11-20T08:49:00;101594.34;;;22.46;34.21
56632;BME280;42503;39.928;-75.152;2022-11-20T08:51:04;101592.38;;;22.47;34.28
56632;BME280;42503;39.928;-75.152;2022-11-20T08:53:08;101558.03;;;22.21;33.92
56632;BME280;42503;39.928;-75.152;2022-11-20T08:55:10;101594.88;;;22.43;34.02
56632;BME280;42503;39.928;-75.152;2022-11-20T08:57:11;101600.75;;;22.42;34.22
56632;BME280;42503;39.928;-75.152;2022-11-20T08:59:12;101605.75;;;22.40;33.96
56632;BME280;42503;39.928;-75.152;2022-11-20T09:01:13;101606.31;;;22.37;33.96
56632;BME280;42503;39.928;-75.152;2022-11-20T09:03:15;101606.88;;;22.39;34.37
56632;BME280;42503;39.928;-75.152;2022-11-20T09:05:16;101618.00;;;22.39;33.96
56632;BME280;42503;39.928;-75.152;2022-11-20T09:07:17;101620.25;;;22.37;33.86
56632;BME280;42503;39.928;-75.152;2022-11-20T09:09:18;101627.50;;;22.38;34.30
56632;BME280;42503;39.928;-75.152;2022-11-20T09:11:20;101633.06;;;22.38;34.22
56632;BME280;42503;39.928;-75.152;2022-11-20T09:13:23;101616.88;;;22.35;34.23
56632;BME280;42503;39.928;-75.152;2022-11-20T09:15:25;101633.63;;;22.35;33.84
56632;BME280;42503;39.928;-75.152;2022-11-20T09:17:27;101634.44;;;22.30;34.38
56632;BME280;42503;39.928;-75.152;2022-11-20T09:19:28;101623.53;;;22.18;34.32
56632;BME280;42503;39.928;-75.152;2022-11-20T09:21:29;101640.00;;;22.30;34.34
56632;BME280;42503;39.928;-75.152;2022-11-20T09:23:35;101633.59;;;22.24;33.99
56632;BME280;42503;39.928;-75.152;2022-11-20T09:25:36;101629.38;;;22.22;33.96
56632;BME280;42503;39.928;-75.152;2022-11-20T09:27:38;101614.56;;;22.11;34.25
56632;BME280;42503;39.928;-75.152;2022-11-20T09:29:46;101640.81;;;22.15;34.41
56632;BME280;42503;39.928;-75.152;2022-11-20T09:31:50;101653.06;;;22.14;34.22
56632;BME280;42503;39.928;-75.152;2022-11-20T09:33:52;101661.72;;;22.18;34.27
56632;BME280;42503;39.928;-75.152;2022-11-20T09:35:53;101677.06;;;22.20;34.33
56632;BME280;42503;39.928;-75.152;2022-11-20T09:37:54;101666.75;;;22.21;34.13
56632;BME280;42503;39.928;-75.152;2022-11-20T09:39:55;101677.06;;;22.25;34.23
56632;BME280;42503;39.928;-75.152;2022-11-20T09:46:58;101689.94;;;22.31;34.24
56632;BME280;42503;39.928;-75.152;2022-11-20T09:54:45;101693.31;;;22.39;33.70
56632;BME280;42503;39.928;-75.152;2022-11-20T09:56:53;101690.50;;;22.33;34.23
56632;BME280;42503;39.928;-75.152;2022-11-20T09:58:59;101700.84;;;22.38;33.71
56632;BME280;42503;39.928;-75.152;2022-11-20T10:01:11;101706.41;;;22.38;34.11
56632;BME280;42503;39.928;-75.152;2022-11-20T10:03:36;101712.28;;;22.37;34.13
56632;BME280;42503;39.928;-75.152;2022-11-20T10:05:45;101720.06;;;22.40;33.87
56632;BME280;42503;39.928;-75.152;2022-11-20T10:07:58;101728.19;;;22.41;33.83
56632;BME280;42503;39.928;-75.152;2022-11-20T10:10:03;101705.56;;;22.32;33.77
56632;BME280;42503;39.928;-75.152;2022-11-20T10:17:12;101731.81;;;22.42;33.98
56632;BME280;42503;39.928;-75.152;2022-11-20T10:20:00;101730.16;;;22.41;33.98
56632;BME280;42503;39.928;-75.152;2022-11-20T10:29:34;101735.44;;;22.42;33.92
56632;BME280;42503;39.928;-75.152;2022-11-20T10:31:40;101732.06;;;22.40;34.03
56632;BME280;42503;39.928;-75.152;2022-11-20T10:33:45;101730.69;;;22.43;33.67
56632;BME280;42503;39.928;-75.152;2022-11-20T10:38:16;101744.09;;;22.41;33.72
56632;BME280;42503;39.928;-75.152;2022-11-20T10:40:44;101755.25;;;22.41;33.64
56632;BME280;42503;39.928;-75.152;2022-11-20T10:42:47;101745.75;;;22.42;33.70
56632;BME280;42503;39.928;-75.152;2022-11-20T10:44:58;101720.31;;;22.23;34.03
56632;BME280;42503;39.928;-75.152;2022-11-20T10:47:12;101749.66;;;22.41;33.69
56632;BME280;42503;39.928;-75.152;2022-11-20T10:49:18;101746.88;;;22.41;33.93
56632;BME280;42503;39.928;-75.152;2022-11-20T10:51:37;101754.38;;;22.40;33.51
56632;BME280;42503;39.928;-75.152;2022-11-20T10:56:02;101763.84;;;22.39;33.98
56632;BME280;42503;39.928;-75.152;2022-11-20T11:00:26;101771.38;;;22.39;33.75